createdAt,value
2022-11-19T00:02:26.862Z,7.53
2022-11-19T00:05:15.716Z,6.40
2022-11-19T00:08:04.571Z,7.13
2022-11-19T00:10:53.320Z,7.10
2022-11-19T00:13:43.103Z,8.53
2022-11-19T00:16:31.892Z,7.57
2022-11-19T00:19:20.895Z,7.73
2022-11-19T00:22:09.832Z,8.40
2022-11-19T00:24:58.615Z,9.17
2022-11-19T00:27:47.527Z,8.67
2022-11-19T00:30:52.918Z,9.00
2022-11-19T00:33:42.463Z,9.97
2022-11-19T00:36:31.662Z,10.60
2022-11-19T00:39:21.038Z,11.03
2022-11-19T00:42:10.074Z,10.80
2022-11-19T00:44:58.852Z,10.80
2022-11-19T00:47:48.985Z,11.40
2022-11-19T00:50:37.816Z,11.33
2022-11-19T00:53:26.693Z,12.73
2022-11-19T00:56:16.486Z,11.70
2022-11-19T00:59:06.106Z,14.33
2022-11-19T01:01:54.879Z,13.97
2022-11-19T01:04:45.150Z,13.33
2022-11-19T01:07:34.004Z,13.67
2022-11-19T01:10:22.896Z,14.43
2022-11-19T01:13:29.304Z,15.20
2022-11-19T01:16:19.144Z,16.40
2022-11-19T01:19:08.952Z,15.80
2022-11-19T01:21:59.112Z,15.40
2022-11-19T01:24:47.939Z,15.40
2022-11-19T01:27:36.704Z,16.27
2022-11-19T01:30:25.474Z,16.10
2022-11-19T01:33:14.540Z,14.27
2022-11-19T01:36:04.157Z,14.30
2022-11-19T01:38:54.732Z,17.07
2022-11-19T01:41:43.515Z,14.80
2022-11-19T01:45:00.347Z,15.97
2022-11-19T01:47:49.226Z,15.30
2022-11-19T01:50:40.727Z,15.27
2022-11-19T01:53:31.283Z,16.17
2022-11-19T01:56:22.521Z,16.30
2022-11-19T01:59:12.781Z,16.43
2022-11-19T02:02:01.612Z,17.97
2022-11-19T02:04:51.875Z,16.67
2022-11-19T02:07:42.535Z,18.10
2022-11-19T02:10:40.106Z,19.33
2022-11-19T02:13:32.958Z,16.73
2022-11-19T02:16:24.863Z,18.30
2022-11-19T02:19:19.451Z,18.63
2022-11-19T02:22:14.724Z,18.33
2022-11-19T02:25:06.701Z,21.00
2022-11-19T02:28:09.181Z,17.90
2022-11-19T02:31:02.085Z,20.20
2022-11-19T02:33:56.098Z,18.53
2022-11-19T02:36:46.650Z,18.47
2022-11-19T02:39:40.422Z,18.57
2022-11-19T02:42:30.211Z,19.00
2022-11-19T02:45:21.084Z,20.97
2022-11-19T02:48:13.551Z,18.07
2022-11-19T02:51:03.539Z,20.50
2022-11-19T02:53:52.933Z,20.33
2022-11-19T02:56:49.273Z,17.07
2022-11-19T02:59:57.713Z,21.57
2022-11-19T03:03:06.419Z,20.23
2022-11-19T03:06:00.277Z,19.23
2022-11-19T03:08:49.294Z,22.33
2022-11-19T03:11:38.090Z,22.00
2022-11-19T03:14:46.115Z,21.40
2022-11-19T03:17:38.628Z,20.13
2022-11-19T03:20:30.654Z,22.00
2022-11-19T03:23:23.493Z,21.93
2022-11-19T03:26:16.731Z,23.17
2022-11-19T03:29:07.588Z,20.07
2022-11-19T03:32:00.081Z,20.80
2022-11-19T03:34:50.599Z,21.97
2022-11-19T03:37:41.139Z,21.27
2022-11-19T03:40:31.957Z,21.70
2022-11-19T03:43:22.264Z,22.97
2022-11-19T03:46:12.992Z,20.70
2022-11-19T03:49:02.199Z,21.07
2022-11-19T03:51:53.820Z,23.13
2022-11-19T03:54:42.848Z,20.33
2022-11-19T03:57:34.209Z,21.30
2022-11-19T04:00:23.003Z,22.30
2022-11-19T04:03:11.799Z,21.30
2022-11-19T04:06:00.619Z,21.73
2022-11-19T04:08:49.363Z,21.37
2022-11-19T04:11:38.492Z,20.80
2022-11-19T04:14:28.766Z,22.40
2022-11-19T04:17:17.981Z,22.67
2022-11-19T04:20:07.462Z,23.10
2022-11-19T04:22:56.233Z,22.80
2022-11-19T04:25:47.531Z,23.37
2022-11-19T04:28:36.591Z,23.30
2022-11-19T04:31:26.653Z,21.20
2022-11-19T04:34:15.407Z,23.50
2022-11-19T04:37:04.170Z,21.87
2022-11-19T04:39:52.935Z,22.17
2022-11-19T04:42:41.813Z,23.20
2022-11-19T04:45:30.573Z,20.70
2022-11-19T04:48:20.698Z,22.87
2022-11-19T04:51:09.503Z,23.33
2022-11-19T04:53:58.271Z,22.70
2022-11-19T04:56:47.045Z,22.07
2022-11-19T04:59:35.805Z,22.50
2022-11-19T05:02:24.860Z,22.50
2022-11-19T05:05:15.015Z,24.00
2022-11-19T05:08:03.814Z,22.13
2022-11-19T05:10:52.610Z,23.00
2022-11-19T05:13:41.400Z,20.40
2022-11-19T05:16:30.223Z,21.50
2022-11-19T05:19:19.184Z,21.60
2022-11-19T05:22:09.412Z,21.30
2022-11-19T05:24:58.179Z,20.20
2022-11-19T05:27:46.998Z,20.43
2022-11-19T05:30:35.800Z,20.40
2022-11-19T05:33:24.579Z,19.00
2022-11-19T05:36:13.341Z,19.00
2022-11-19T05:39:03.409Z,19.43
2022-11-19T05:41:52.156Z,19.87
2022-11-19T05:44:40.911Z,20.27
2022-11-19T05:47:29.694Z,18.37
2022-11-19T05:50:18.587Z,19.50
2022-11-19T05:53:07.358Z,18.10
2022-11-19T05:55:57.448Z,18.30
2022-11-19T05:58:46.250Z,19.17
2022-11-19T06:01:35.067Z,19.07
2022-11-19T06:04:23.803Z,17.80
2022-11-19T06:07:12.731Z,17.87
2022-11-19T06:10:01.530Z,20.17
2022-11-19T06:12:51.627Z,19.43
2022-11-19T06:15:40.371Z,18.20
2022-11-19T06:18:29.130Z,20.30
2022-11-19T06:21:17.930Z,18.93
2022-11-19T06:24:06.934Z,18.70
2022-11-19T06:26:55.777Z,17.00
2022-11-19T06:29:45.875Z,17.73
2022-11-19T06:32:34.927Z,15.10
2022-11-19T06:35:23.689Z,16.03
2022-11-19T06:38:12.507Z,18.67
2022-11-19T06:41:01.264Z,17.80
2022-11-19T06:43:50.123Z,17.70
2022-11-19T06:46:40.220Z,16.80
2022-11-19T06:49:28.956Z,16.00
2022-11-19T06:52:17.784Z,17.90
2022-11-19T06:55:06.953Z,15.50
2022-11-19T06:57:56.048Z,17.80
2022-11-19T07:00:46.609Z,18.43
2022-11-19T07:03:36.711Z,17.10
2022-11-19T07:06:25.459Z,15.87
2022-11-19T07:09:14.221Z,15.87
2022-11-19T07:12:03.009Z,15.40
2022-11-19T07:14:51.796Z,14.97
2022-11-19T07:17:42.208Z,14.50
2022-11-19T07:20:32.319Z,13.70
2022-11-19T07:23:21.084Z,14.53
2022-11-19T07:26:09.880Z,13.27
2022-11-19T07:29:04.266Z,15.43
2022-11-19T07:31:53.532Z,14.00
2022-11-19T07:34:42.330Z,12.97
2022-11-19T07:37:32.449Z,13.90
2022-11-19T07:40:21.180Z,12.50
2022-11-19T07:43:08.981Z,11.10
2022-11-19T07:45:57.760Z,12.37
2022-11-19T07:48:46.569Z,12.13
2022-11-19T07:51:35.354Z,11.30
2022-11-19T07:54:25.474Z,11.73
2022-11-19T07:57:14.419Z,11.60
2022-11-19T08:00:03.408Z,10.57
2022-11-19T08:02:52.206Z,11.07
2022-11-19T08:05:41.928Z,11.63
2022-11-19T08:08:30.726Z,11.53
2022-11-19T08:11:21.147Z,11.63
2022-11-19T08:14:09.905Z,12.13
2022-11-19T08:17:24.525Z,11.47
2022-11-19T08:20:13.312Z,9.40
2022-11-19T08:23:02.193Z,11.10
2022-11-19T08:25:52.866Z,10.60
2022-11-19T08:28:42.970Z,11.33
2022-11-19T08:31:31.823Z,10.73
2022-11-19T08:34:22.323Z,10.37
2022-11-19T08:37:13.500Z,10.80
2022-11-19T08:40:02.347Z,10.10
2022-11-19T08:43:02.424Z,10.87
2022-11-19T08:45:54.742Z,10.00
2022-11-19T08:48:43.536Z,10.30
2022-11-19T08:51:35.253Z,11.00
2022-11-19T08:54:24.037Z,10.43
2022-11-19T08:57:13.332Z,10.20
2022-11-19T09:00:06.299Z,10.73
2022-11-19T09:02:57.105Z,10.50
2022-11-19T09:05:45.915Z,10.33
2022-11-19T09:08:35.184Z,10.00
2022-11-19T09:11:24.318Z,9.37
2022-11-19T09:14:13.287Z,9.00
2022-11-19T09:17:02.121Z,9.40
2022-11-19T09:19:52.282Z,8.77
2022-11-19T09:22:41.072Z,9.33
2022-11-19T09:25:30.194Z,7.17
2022-11-19T09:28:19.001Z,7.97
2022-11-19T09:31:08.478Z,9.00
2022-11-19T09:33:57.521Z,10.10
2022-11-19T09:36:47.660Z,9.20
2022-11-19T09:39:36.620Z,9.33
2022-11-19T09:42:28.856Z,8.70
2022-11-19T09:45:20.060Z,8.20
2022-11-19T09:48:18.990Z,7.10
2022-11-19T09:51:10.785Z,8.40
2022-11-19T09:54:03.658Z,4.53
2022-11-19T09:56:54.549Z,4.33
2022-11-19T09:59:43.395Z,5.87
2022-11-19T10:02:32.354Z,4.70
2022-11-19T10:05:26.592Z,5.57
2022-11-19T10:08:24.140Z,7.90
2022-11-19T10:11:22.099Z,9.17
2022-11-19T10:14:17.089Z,7.63
2022-11-19T10:17:10.724Z,7.30
2022-11-19T10:20:07.845Z,7.60
2022-11-19T10:22:58.331Z,7.50
2022-11-19T10:25:47.910Z,5.83
2022-11-19T10:28:39.371Z,6.40
2022-11-19T10:31:34.612Z,4.47
2022-11-19T10:34:24.289Z,4.40
2022-11-19T10:37:14.988Z,4.60
2022-11-19T10:40:06.721Z,5.80
2022-11-19T10:42:58.107Z,4.77
2022-11-19T10:45:48.226Z,4.57
2022-11-19T10:48:39.329Z,4.97
2022-11-19T10:51:29.822Z,5.23
2022-11-19T10:54:23.278Z,5.70
2022-11-19T10:57:16.628Z,5.97
2022-11-19T11:00:05.632Z,6.73
2022-11-19T11:03:01.355Z,5.30
2022-11-19T11:06:01.959Z,4.80
2022-11-19T11:08:52.098Z,5.00
2022-11-19T11:11:58.751Z,5.03
2022-11-19T11:14:54.822Z,6.50
2022-11-19T11:17:45.929Z,7.93
2022-11-19T11:20:36.827Z,6.00
2022-11-19T11:23:26.746Z,7.53
2022-11-19T11:26:20.072Z,7.20
2022-11-19T11:29:25.425Z,6.90
2022-11-19T11:32:27.950Z,6.00
2022-11-19T11:35:33.021Z,4.47
2022-11-19T11:38:24.279Z,5.07
2022-11-19T11:44:30.480Z,7.90
2022-11-19T11:47:20.109Z,7.90
2022-11-19T11:50:10.306Z,8.50
2022-11-19T11:52:59.174Z,7.17
2022-11-19T11:55:58.120Z,6.70
2022-11-19T11:58:46.979Z,5.00
2022-11-19T12:01:35.719Z,5.33
2022-11-19T12:04:25.291Z,5.47
2022-11-19T12:07:18.443Z,5.20
2022-11-19T12:10:15.517Z,5.03
2022-11-19T12:13:27.946Z,7.10
2022-11-19T12:16:20.804Z,7.30
2022-11-19T12:19:15.178Z,8.07
2022-11-19T12:22:08.178Z,7.67
2022-11-19T12:25:09.943Z,7.60
2022-11-19T12:28:06.014Z,7.23
2022-11-19T12:31:02.385Z,4.73
2022-11-19T12:34:03.458Z,5.57
2022-11-19T12:36:58.575Z,5.60
2022-11-19T12:39:48.224Z,4.63
2022-11-19T12:42:45.669Z,4.50
2022-11-19T12:45:39.779Z,4.63
2022-11-19T12:48:40.139Z,5.43
2022-11-19T12:51:34.634Z,4.50
2022-11-19T12:54:35.145Z,6.03
2022-11-19T12:57:36.949Z,4.93
2022-11-19T13:00:26.645Z,5.10
2022-11-19T13:03:19.044Z,4.77
2022-11-19T13:06:16.711Z,5.63
2022-11-19T13:09:09.409Z,4.87
2022-11-19T13:12:03.290Z,4.90
2022-11-19T13:14:55.344Z,4.40
2022-11-19T13:17:45.331Z,5.40
2022-11-19T13:20:38.728Z,5.13
2022-11-19T13:23:30.543Z,5.40
2022-11-19T13:26:23.010Z,5.10
2022-11-19T13:29:21.947Z,4.53
2022-11-19T13:32:25.271Z,4.57
2022-11-19T13:35:18.538Z,5.30
2022-11-19T13:38:14.598Z,4.73
2022-11-19T13:41:07.605Z,4.53
2022-11-19T13:44:14.864Z,4.83
2022-11-19T13:47:03.830Z,5.47
2022-11-19T13:49:54.279Z,4.60
2022-11-19T13:52:46.522Z,5.50
2022-11-19T13:55:37.319Z,5.33
2022-11-19T13:58:30.966Z,5.37
2022-11-19T14:01:39.609Z,3.83
2022-11-19T14:04:35.373Z,4.53
2022-11-19T14:07:33.614Z,7.03
2022-11-19T14:10:24.847Z,6.60
2022-11-19T14:13:19.337Z,6.70
2022-11-19T14:16:33.866Z,7.23
2022-11-19T14:19:40.793Z,6.63
2022-11-19T14:22:50.484Z,7.13
2022-11-19T14:26:03.565Z,7.13
2022-11-19T14:28:53.278Z,6.77
2022-11-19T14:31:56.925Z,7.67
2022-11-19T14:34:50.035Z,6.80
2022-11-19T14:37:40.615Z,7.57
2022-11-19T14:40:30.569Z,7.97
2022-11-19T14:43:43.598Z,6.77
2022-11-19T14:46:32.365Z,7.73
2022-11-19T14:49:38.748Z,7.13
2022-11-19T14:52:30.096Z,6.60
2022-11-19T14:55:21.389Z,7.60
2022-11-19T14:58:21.319Z,5.80
2022-11-19T15:01:16.673Z,6.87
2022-11-19T15:04:11.571Z,6.30
2022-11-19T15:07:01.665Z,6.90
2022-11-19T15:10:04.162Z,7.30
2022-11-19T15:13:03.417Z,7.37
2022-11-19T15:15:53.826Z,7.17
2022-11-19T15:19:00.076Z,6.77
2022-11-19T15:21:55.824Z,6.43
2022-11-19T15:24:50.454Z,6.77
2022-11-19T15:27:52.350Z,6.60
2022-11-19T15:30:52.103Z,8.17
2022-11-19T15:33:58.998Z,7.57
2022-11-19T15:36:48.831Z,6.70
2022-11-19T15:39:39.886Z,6.37
2022-11-19T15:42:30.948Z,5.90
2022-11-19T15:45:22.644Z,7.30
2022-11-19T15:48:12.342Z,6.70
2022-11-19T15:51:02.474Z,7.10
2022-11-19T15:54:02.353Z,6.70
2022-11-19T15:56:51.862Z,7.90
2022-11-19T15:59:40.641Z,7.10
2022-11-19T16:02:34.200Z,7.87
2022-11-19T16:05:24.050Z,7.60
2022-11-19T16:08:14.603Z,6.80
2022-11-19T16:11:21.311Z,7.40
2022-11-19T16:14:34.008Z,7.10
2022-11-19T16:17:43.190Z,7.10
2022-11-19T16:20:34.936Z,7.60
2022-11-19T16:23:24.290Z,7.40
2022-11-19T16:26:13.051Z,7.20
2022-11-19T16:29:02.789Z,7.93
2022-11-19T16:31:51.968Z,7.13
2022-11-19T16:34:40.730Z,6.77
2022-11-19T16:37:30.883Z,7.30
2022-11-19T16:40:20.579Z,8.43
2022-11-19T16:43:08.398Z,6.73
2022-11-19T16:45:57.424Z,7.13
2022-11-19T16:48:56.687Z,7.93
2022-11-19T16:51:53.243Z,7.03
2022-11-19T16:54:47.958Z,8.67
2022-11-19T16:57:36.803Z,7.80
2022-11-19T17:00:28.355Z,7.87
